Latest Weather Observations for Condobolin Airport

IDN60801

Issued at 6:03 pm EST Tuesday 21 April 2015 (issued every 30 minutes, with the page automatically refreshed every 10 minutes)

About weather observations | Map of weather stations | Latest weather observations for NSW | Other Formats
Station Details ID: 050137 Name: CONDOBOLIN AIRPORT AWS Lat: -33.07 Lon: 147.21 Height: 192.6 m
Data from the previous 72 hours. | See also: Recent months at Condobolin Airport
Date/Time
EST
Temp
°C
App
Temp
°C
Dew
Point
Rel
Hum
%
Delta-T
°C
Wind Press
QNH
hPa
Press
MSL
hPa
Rain
since 9 am
mm
Dir
 
Spd
km/h
Gust
km/h
Spd
kts
Gust
kts
21/06:00pm 13.3 10.2 7.3 67 2.9 SE 13 19 7 10 1023.1 1022.8 0.0
21/05:30pm 13.6 8.7 6.9 64 3.3 SE 22 30 12 16 1023.1 1022.8 0.0
21/05:00pm 14.0 9.2 7.3 64 3.3 SE 22 30 12 16 1023.6 1023.3 0.0
21/04:30pm 14.4 9.2 7.2 62 3.6 SE 24 35 13 19 1023.5 1023.2 0.0
21/04:00pm 15.1 8.6 6.7 57 4.1 SE 30 43 16 23 1023.6 1023.3 0.0
21/03:31pm 15.4 7.8 5.9 53 4.6 SE 35 54 19 29 1023.6 1023.3 0.0
21/03:30pm 15.5 8.0 6.5 55 4.4 SE 35 50 19 27 1023.6 1023.3 0.0
21/03:01pm 16.0 9.7 5.6 50 5.0 SSE 28 46 15 25 1023.6 1023.3 0.0
21/03:00pm 16.2 10.5 6.6 53 4.7 SSE 26 41 14 22 1023.5 1023.2 0.0
21/02:32pm 16.2 10.0 6.3 52 4.9 SSE 28 48 15 26 1023.5 1023.2 0.0
21/02:30pm 16.3 10.6 6.7 53 4.8 SSE 26 39 14 21 1023.4 1023.1 0.0
21/02:00pm 16.1 10.5 7.1 55 4.5 SSE 26 43 14 23 1023.4 1023.1 0.0
21/01:30pm 15.9 9.7 6.3 53 4.7 SE 28 35 15 19 1023.6 1023.3 0.0
21/01:00pm 15.9 9.9 7.1 56 4.4 SE 28 43 15 23 1023.8 1023.5 0.0
21/12:30pm 16.5 11.3 7.4 55 4.6 SSE 24 41 13 22 1024.0 1023.7 0.0
21/12:00pm 15.2 8.8 5.4 52 4.7 SSE 28 39 15 21 1024.4 1024.1 0.0
21/11:30am 14.1 8.1 5.5 56 4.1 SSE 26 37 14 20 1024.4 1024.1 0.0
21/11:00am 13.8 7.8 5.4 57 4.0 SSE 26 39 14 21 1025.0 1024.6 0.0
21/10:30am 13.6 7.6 5.5 58 3.8 SSE 26 39 14 21 1025.0 1024.6 0.0
21/10:00am 13.3 7.7 5.5 59 3.7 S 24 32 13 17 1025.1 1024.7 0.0
21/09:30am 12.9 8.8 6.3 64 3.2 S 17 28 9 15 1025.3 1024.9 0.0
21/09:00am 11.7 7.6 6.0 68 2.7 S 17 24 9 13 1025.5 1025.1 20.6
21/08:30am 11.4 7.2 5.5 67 2.8 S 17 26 9 14 1025.2 1024.8 20.6
21/08:00am 10.2 6.8 6.0 75 2.0 SSW 13 15 7 8 1025.2 1024.8 20.6
21/07:30am 9.8 5.7 6.0 77 1.8 SW 17 20 9 11 1025.0 1024.6 20.6
21/07:00am 9.9 6.2 6.1 77 1.8 SSW 15 20 8 11 1025.0 1024.6 20.6
21/06:30am 10.0 6.2 5.8 75 2.0 SSW 15 20 8 11 1024.6 1024.3 20.6
21/06:00am 10.5 6.7 5.7 72 2.2 SSW 15 20 8 11 1024.8 1024.5 20.6
21/05:30am 10.6 7.2 5.8 72 2.2 S 13 19 7 10 1024.6 1024.3 20.6
21/05:00am 10.7 7.3 5.7 71 2.3 S 13 17 7 9 1024.5 1024.2 20.6
21/04:30am 10.8 7.4 5.8 71 2.3 S 13 19 7 10 1024.4 1024.1 20.6
21/04:00am 11.3 7.1 5.8 69 2.6 S 17 26 9 14 1024.1 1023.8 20.6
21/03:30am 11.8 7.0 5.4 65 3.0 S 20 30 11 16 1023.9 1023.6 20.6
21/03:00am 11.9 6.3 5.3 64 3.1 S 24 33 13 18 1024.1 1023.8 20.6
21/02:30am 12.1 6.5 5.3 63 3.2 SSE 24 43 13 23 1024.3 1024.0 20.6
21/02:00am 12.3 6.0 5.5 63 3.2 SSE 28 46 15 25 1024.2 1023.9 20.6
21/01:59am 12.2 5.9 5.6 64 3.1 SSE 28 46 15 25 1024.1 1023.8 20.6
21/01:30am 12.5 5.9 5.9 64 3.1 SSE 30 39 16 21 1024.1 1023.8 20.6
21/01:00am 12.5 4.5 5.9 64 3.1 SSE 37 56 20 30 1023.7 1023.4 20.6
21/12:54am 12.5 4.6 6.1 65 3.1 SSE 37 56 20 30 1023.8 1023.5 20.6
21/12:30am 12.0 3.4 6.7 70 2.6 SSE 41 57 22 31 1023.4 1023.1 20.6
21/12:21am 12.3 5.4 6.4 67 2.8 SSE 32 54 17 29 1023.3 1023.0 20.6
21/12:00am 12.6 6.5 6.6 67 2.9 SSE 28 41 15 22 1023.9 1023.6 20.6
 
Date/Time
EST
Temp
°C
App
Temp
°C
Dew
Point
Rel
Hum
%
Delta-T
°C
Wind Press
QNH
hPa
Press
MSL
hPa
Rain
since 9 am
mm
Dir
 
Spd
km/h
Gust
km/h
Spd
kts
Gust
kts
20/11:30pm 12.7 7.8 7.0 68 2.8 S 22 33 12 18 1024.3 1024.0 20.6
20/11:00pm 12.9 8.4 7.1 68 2.8 S 20 28 11 15 1025.0 1024.6 20.6
20/10:30pm 12.5 8.4 7.8 73 2.3 S 19 30 10 16 1025.5 1025.1 20.6
20/10:00pm 11.7 8.2 8.6 81 1.5 S 17 26 9 14 1025.7 1025.4 20.6
20/09:30pm 11.1 7.3 9.0 87 1.1 SSE 19 30 10 16 1025.8 1025.5 20.4
20/09:00pm 11.1 7.2 8.8 86 1.1 S 19 30 10 16 1025.7 1025.4 19.4
20/08:30pm 11.2 7.2 9.1 87 1.1 S 20 33 11 18 1026.0 1025.7 18.8
20/08:00pm 11.1 7.8 9.4 89 0.9 S 17 28 9 15 1026.2 1025.9 18.6
20/07:30pm 11.3 6.5 8.9 85 1.2 SSE 24 37 13 20 1026.1 1025.8 17.6
20/07:00pm 11.7 7.4 9.4 86 1.2 SSE 22 32 12 17 1025.9 1025.6 15.4
20/06:30pm 12.1 8.2 9.3 83 1.4 S 20 30 11 16 1025.5 1025.1 14.8
20/06:00pm 11.4 8.5 9.5 88 1.0 SSW 15 20 8 11 1025.4 1025.0 14.6
20/05:30pm 11.6 7.6 9.2 85 1.2 SSW 20 30 11 16 1025.0 1024.6 14.4
20/05:00pm 11.1 6.1 9.5 90 0.8 SSW 26 32 14 17 1024.8 1024.5 14.2
20/04:30pm 10.7 6.8 9.3 91 0.7 SSW 20 26 11 14 1025.3 1024.9 14.2
20/04:00pm 10.2 5.8 9.0 92 0.6 SW 22 32 12 17 1025.0 1024.6 14.2
20/03:30pm 10.0 5.2 8.8 92 0.6 SW 24 30 13 16 1025.1 1024.7 13.8
20/03:00pm 9.6 4.0 8.7 94 0.4 SW 28 37 15 20 1025.0 1024.6 13.6
20/02:30pm 9.3 4.5 8.7 96 0.3 SW 24 33 13 18 1024.8 1024.5 13.2
20/02:00pm 9.4 4.1 8.6 95 0.4 SW 26 35 14 19 1025.5 1025.1 11.4
20/01:30pm 9.8 4.6 9.0 95 0.4 SSW 26 39 14 21 1025.9 1025.6 10.4
20/01:00pm 9.6 4.4 9.0 96 0.3 SSW 26 35 14 19 1026.4 1026.1 10.0
20/12:30pm 9.5 5.2 9.4 99 0.1 SSW 22 30 12 16 1027.0 1026.7 9.4
20/12:00pm 8.9 5.0 8.5 97 0.2 SSW 19 26 10 14 1028.1 1027.8 8.2
20/11:30am 8.6 4.6 8.3 98 0.1 SSW 19 26 10 14 1028.6 1028.3 7.4
20/11:00am 8.5 4.3 8.1 97 0.2 SSW 20 26 11 14 1028.6 1028.3 5.8
20/10:30am 8.7 4.5 8.1 96 0.3 S 20 32 11 17 1028.7 1028.4 3.0
20/10:00am 9.0 4.8 8.4 96 0.3 S 20 30 11 16 1028.8 1028.5 1.8
20/09:30am 9.0 5.0 8.2 95 0.4 S 19 28 10 15 1029.0 1028.7 1.4
20/09:00am 8.9 5.2 8.0 94 0.4 S 17 24 9 13 1028.9 1028.6 1.8
20/08:30am 9.4 5.3 7.7 89 0.8 S 19 26 10 14 1028.5 1028.2 0.4
20/08:00am 10.0 5.6 7.4 84 1.2 S 20 32 11 17 1028.1 1027.8 0.2
20/07:30am 9.8 5.5 7.2 84 1.2 S 19 32 10 17 1027.8 1027.5 0.2
20/07:00am 9.5 4.7 7.3 86 1.0 S 22 33 12 18 1027.4 1027.1 0.2
20/06:30am 9.4 5.0 7.5 88 0.9 S 20 30 11 16 1027.2 1026.9 0.2
20/06:00am 9.6 5.3 7.9 89 0.8 S 20 28 11 15 1027.1 1026.8 0.2
20/05:30am 9.8 5.4 7.6 86 1.1 SSW 20 30 11 16 1026.9 1026.6 0.0
20/05:00am 11.1 6.5 6.3 72 2.3 S 20 30 11 16 1026.5 1026.2 0.0
20/04:30am 10.6 6.8 7.5 81 1.5 S 17 26 9 14 1026.2 1025.9 0.0
20/04:00am 10.5 7.3 8.3 86 1.1 SSW 15 22 8 12 1026.1 1025.8 0.0
20/03:30am 8.9 6.2 7.2 89 0.8 S 11 17 6 9 1025.9 1025.6 0.0
20/03:00am 8.7 4.6 6.3 85 1.1 SSW 17 22 9 12 1026.0 1025.7 0.0
20/02:30am 8.4 4.6 5.7 83 1.2 SW 15 17 8 9 1026.1 1025.8 0.0
20/02:00am 9.3 5.1 5.9 79 1.6 SSW 17 20 9 11 1026.2 1025.9 0.0
20/01:30am 8.7 4.8 5.3 79 1.5 SW 15 19 8 10 1026.3 1026.0 0.0
20/01:00am 9.2 5.2 5.0 75 1.9 SSW 15 20 8 11 1026.5 1026.2 0.0
20/12:30am 9.4 5.0 4.8 73 2.1 SSW 17 22 9 12 1026.6 1026.3 0.0
20/12:00am 9.6 4.6 4.6 71 2.2 SSW 20 26 11 14 1026.7 1026.4 0.0
 
Date/Time
EST
Temp
°C
App
Temp
°C
Dew
Point
Rel
Hum
%
Delta-T
°C
Wind Press
QNH
hPa
Press
MSL
hPa
Rain
since 9 am
mm
Dir
 
Spd
km/h
Gust
km/h
Spd
kts
Gust
kts
19/11:30pm 10.0 5.0 4.4 68 2.5 SSW 20 28 11 15 1026.8 1026.5 0.0
19/11:00pm 10.5 4.7 4.2 65 2.8 SW 24 30 13 16 1027.0 1026.7 0.0
19/10:30pm 10.7 5.6 4.2 64 2.9 SW 20 26 11 14 1027.3 1027.0 0.0
19/10:00pm 10.7 5.7 4.4 65 2.8 SW 20 26 11 14 1027.4 1027.1 0.0
19/09:30pm 11.2 5.8 4.7 64 3.0 SW 22 28 12 15 1027.2 1026.9 0.0
19/09:00pm 11.3 6.4 5.2 66 2.8 SW 20 26 11 14 1027.1 1026.8 0.0
19/08:30pm 11.7 6.8 5.3 65 3.0 SW 20 28 11 15 1027.0 1026.7 0.0
19/08:00pm 12.0 6.4 5.4 64 3.1 SW 24 32 13 17 1026.9 1026.6 0.0
19/07:30pm 12.4 7.6 5.8 64 3.1 SW 20 28 11 15 1026.5 1026.2 0.0
19/07:00pm 13.0 7.8 5.4 60 3.6 SW 22 28 12 15 1026.0 1025.7 0.0
19/06:30pm 13.3 8.0 5.0 57 3.9 SW 22 28 12 15 1025.5 1025.1 0.0
19/06:00pm 13.8 8.9 4.9 55 4.2 SW 20 26 11 14 1025.2 1024.8 0.0
19/05:30pm 14.7 8.3 3.2 46 5.2 SSW 26 39 14 21 1024.6 1024.3 0.0
19/05:00pm 15.9 8.9 4.0 45 5.5 SW 30 37 16 20 1024.2 1023.9 0.0
19/04:30pm 16.3 9.2 3.7 43 5.9 SSW 30 37 16 20 1024.0 1023.7 0.0
19/04:00pm 16.8 9.3 3.5 41 6.2 SSW 32 41 17 22 1024.0 1023.7 0.0
19/03:30pm 16.8 9.2 2.8 39 6.4 SW 32 43 17 23 1023.8 1023.5 0.0
19/03:00pm 18.1 11.4 3.9 39 6.7 SSW 28 35 15 19 1023.7 1023.4 0.0
19/02:30pm 17.5 10.1 4.1 41 6.4 SW 32 41 17 22 1023.5 1023.2 0.0
19/02:00pm 17.8 10.6 5.1 43 6.1 SW 32 41 17 22 1023.4 1023.1 0.0
19/01:30pm 17.8 11.6 6.0 46 5.8 SW 28 37 15 20 1023.3 1023.0 0.0
19/01:00pm 17.4 10.6 5.0 44 6.0 SW 30 46 16 25 1023.4 1023.1 0.0
19/12:57pm 17.0 10.6 5.0 45 5.8 SW 28 46 15 25 1023.3 1023.0 0.0
19/12:30pm 17.2 10.7 6.7 50 5.2 SW 30 39 16 21 1023.5 1023.2 0.0
19/12:00pm 16.1 11.3 8.8 62 3.8 SW 24 32 13 17 1023.7 1023.4 0.0
19/11:30am 14.5 9.7 8.7 68 3.0 SSW 24 33 13 18 1024.1 1023.8 0.0
19/11:00am 13.8 9.1 9.3 74 2.3 SSW 24 32 13 17 1024.1 1023.8 0.0
19/10:30am 13.4 8.4 9.6 78 2.0 SSW 26 33 14 18 1023.8 1023.5 0.0
19/10:00am 13.2 7.8 9.6 79 1.8 SW 28 33 15 18 1023.6 1023.3 0.0
19/09:30am 13.2 8.5 10.7 85 1.3 SW 26 37 14 20 1023.2 1022.9 0.0
19/09:00am 12.6 7.3 11.2 91 0.7 SSW 30 39 16 21 1022.8 1022.5 1.4
19/08:48am 12.8 7.7 10.7 87 1.1 SW 28 50 15 27 1022.7 1022.4 1.4
19/08:30am 14.4 11.3 13.3 93 0.6 SW 22 30 12 16 1022.0 1021.7 1.4
19/08:00am 13.9 11.0 12.8 93 0.6 SW 20 28 11 15 1021.6 1021.3 1.4
19/07:30am 13.6 11.2 12.7 94 0.5 SW 17 20 9 11 1021.1 1020.7 1.4
19/07:00am 13.3 9.5 12.5 95 0.4 WSW 24 28 13 15 1020.6 1020.2 1.4
19/06:30am 13.1 11.5 12.9 99 0.1 W 13 30 7 16 1020.0 1019.6 1.4
19/06:00am 12.7 11.3 12.2 97 0.3 W 11 13 6 7 1019.2 1018.9 1.4
19/05:30am 13.0 11.3 12.5 97 0.3 WSW 13 17 7 9 1018.8 1018.5 1.4
19/05:00am 13.4 11.7 12.6 95 0.4 WSW 13 17 7 9 1018.8 1018.5 1.4
19/04:30am 14.0 11.8 13.2 95 0.4 WSW 17 20 9 11 1018.7 1018.4 1.4
19/04:00am 14.6 13.0 13.8 95 0.5 WSW 15 20 8 11 1018.1 1017.8 1.4
19/03:30am 14.5 12.4 13.7 95 0.5 WSW 17 22 9 12 1018.1 1017.8 1.4
19/03:00am 14.4 12.7 13.6 95 0.4 WSW 15 20 8 11 1018.0 1017.7 1.4
19/02:30am 14.3 12.5 13.3 94 0.6 SW 15 20 8 11 1018.1 1017.8 1.4
19/02:00am 14.5 13.5 13.5 94 0.6 WSW 11 15 6 8 1018.2 1017.9 1.4
19/01:30am 14.1 12.9 12.7 91 0.8 WSW 11 15 6 8 1018.5 1018.2 1.4
19/01:00am 14.5 12.5 12.7 89 1.0 SW 15 19 8 10 1018.6 1018.3 1.4
19/12:30am 15.0 12.1 13.0 88 1.1 SW 20 28 11 15 1018.6 1018.3 1.4
19/12:00am 15.6 13.4 15.0 96 0.3 SW 20 26 11 14 1018.5 1018.2 1.4
 
Date/Time
EST
Temp
°C
App
Temp
°C
Dew
Point
Rel
Hum
%
Delta-T
°C
Wind Press
QNH
hPa
Press
MSL
hPa
Rain
since 9 am
mm
Dir
 
Spd
km/h
Gust
km/h
Spd
kts
Gust
kts
18/11:30pm 15.8 13.4 15.5 98 0.2 WSW 22 30 12 16 1018.4 1018.1 1.4
18/11:00pm 16.1 14.3 15.9 99 0.1 WSW 20 28 11 15 1018.3 1018.0 1.4
18/10:30pm 17.6 18.1 16.6 94 0.6 W 9 15 5 8 1018.0 1017.7 0.4
18/10:00pm 17.7 17.8 16.6 93 0.7 W 11 17 6 9 1017.8 1017.5 0.4
18/09:30pm 17.7 17.9 16.7 94 0.6 W 11 15 6 8 1017.2 1016.9 0.4
18/09:00pm 17.5 18.1 16.7 95 0.5 WNW 9 13 5 7 1017.3 1017.0 0.4
18/08:30pm 17.4 17.7 16.1 92 0.8 WNW 9 11 5 6 1017.0 1016.7 0.4
18/08:00pm 17.5 17.8 16.0 91 0.9 WNW 9 11 5 6 1016.7 1016.4 0.4
18/07:30pm 17.7 17.6 15.9 89 1.1 WNW 11 15 6 8 1016.3 1015.9 0.4
18/07:00pm 17.9 17.1 16.2 90 1.0 W 15 20 8 11 1016.5 1016.1 0.4
18/06:30pm 18.1 18.0 16.9 93 0.7 WNW 13 17 7 9 1016.2 1015.8 0.4

Other Formats:

Comma delimited format used in spreadsheet applications
http://www.bom.gov.au/fwo/IDN60801/IDN60801.95708.axf

JavaScript Object Notation format (JSON) in row-major order
http://www.bom.gov.au/fwo/IDN60801/IDN60801.95708.json